x

South Nomad (46036) Wave Buoy

12:00am - Fri 26th Aug 2016 All times are UTC.

  • Sig Wave height 9.2ft
  • Peak Period 8s
  • Wind
    27mph, 31mph gusts
  • Sea Temp 62°f
  • Air Temp 62°f
  • Sea Pressure 1028.3mb

More Historic Weather Station data

Upgrade to MSW Pro to gain access to the past 30 days of data for over 8000 Wavebouys and Weather Stations around the globe.

Join Pro

Comparision Forecast

View Surf forecast
   
Fri 08/26 12:00am 9ft 8s 27 31 mph 1028.3mb 62f 62f
Thu 08/25 11:00pm 9.5ft 8s 27 31 mph 1028.8mb 62f 62f
10:00pm 9.5ft 9s 25 29 mph 1029.6mb 62f 62f
9:00pm 9.5ft 8s 25 29 mph 1030.2mb 62f 61f
8:00pm 9.5ft 9s 27 31 mph 1030.6mb 62f 62f
7:00pm 9.5ft 8s 22 29 mph 1031mb 62f 62f
6:00pm 9ft 8s 27 31 mph 1031.3mb 62f 62f
5:00pm 9.5ft 8s 25 29 mph 1031.7mb 62f 61f
4:00pm 9.5ft 8s 25 31 mph 1032mb 62f 61f
3:00pm 9ft 8s 27 36 mph 1032.3mb 62f 60f
2:00pm 9.5ft 8s 27 31 mph 1032.2mb 62f 60f
1:00pm 9ft 8s 25 31 mph 1032.2mb 62f 60f
12:00pm 8.5ft 7s 25 31 mph 1032.3mb 62f 60f
11:00am 9ft 8s 25 31 mph 1032.3mb 62f 61f
10:00am 8ft 7s 22 29 mph 1032.7mb 62f 61f
9:00am 8ft 7s 25 29 mph 1032.8mb 62f 61f
8:00am 8ft 7s 25 29 mph 1033mb 62f 61f
7:00am 8ft 7s 25 29 mph 1033.1mb 62f 61f
6:00am 7ft 7s 27 31 mph 1033.1mb 63f 61f
5:00am 7ft 7s 25 31 mph 1033mb 63f 61f
4:00am 7ft 5s 25 29 mph 1032.8mb 63f 61f
3:00am 6ft 6s 25 31 mph 1032.8mb 63f 61f
2:00am 6ft 6s 22 27 mph 1032.9mb 63f 62f
1:00am 6ft 6s 22 25 mph 1033.3mb 63f 62f
12:00am 5.5ft 5s 20 25 mph 1033.5mb 63f 62f
Wed 08/24 11:00pm 5.5ft 10s 20 25 mph 1034mb 63f 62f
10:00pm 5ft 9s 20 25 mph 1034.2mb 63f 62f
9:00pm 5ft 9s 18 22 mph 1034.4mb 63f 62f
8:00pm 5ft 9s 18 22 mph 1034.6mb 63f 61f
7:00pm 5ft 10s 18 22 mph 1034.9mb 63f 61f
6:00pm 5ft 10s 18 20 mph 1034.6mb 62f 61f
5:00pm 5ft 10s 18 20 mph 1034.2mb 62f 60f
4:00pm 4.5ft 14s 18 22 mph 1034.2mb 62f 60f
3:00pm 4.5ft 14s 18 22 mph 1033.8mb 62f 60f
2:00pm 4.5ft 14s 18 22 mph 1033.3mb 62f 60f
1:00pm 4.5ft 15s 16 20 mph 1033.2mb 63f 60f
12:00pm 4ft 11s 16 22 mph 1033.1mb 63f 60f
11:00am 4ft 15s 16 18 mph 1033mb 63f 60f
10:00am 3.5ft 15s 13 20 mph 1032.7mb 63f 60f
9:00am 3.5ft 14s 13 18 mph 1032.7mb 63f 61f
8:00am 3.5ft 15s 13 18 mph 1032.5mb 63f 61f
7:00am 3.5ft 15s 13 16 mph 1032.6mb 63f 62f
6:00am 3.5ft 15s 11 16 mph 1032.5mb 63f 61f
5:00am 3.5ft 16s 13 18 mph 1032.2mb 63f 62f
4:00am 3ft 15s 13 16 mph 1031.9mb 63f 62f
3:00am 3.5ft 15s 13 16 mph 1031.5mb 63f 62f
2:00am 3ft 16s 13 16 mph 1031.3mb 63f 62f
1:00am 3ft 16s 13 16 mph 1031.1mb 63f 62f
12:00am 2.5ft 15s 11 16 mph 1031mb 63f 62f
Tue 08/23 11:00pm 3ft 16s 11 13 mph 1031mb 63f 63f
10:00pm 3ft 16s 11 13 mph 1030.9mb 63f 63f
9:00pm 3ft 16s 9
mph
1030.7mb 63f 63f
8:00pm 3ft 16s 7 9 mph 1030.8mb 63f 62f
7:00pm 2.5ft 14s 9 11 mph 1030.6mb 63f 62f
6:00pm 3ft 16s 7 9 mph 1030.2mb 63f 62f
5:00pm 3.5ft 16s 9
mph
1029.7mb 63f 62f
4:00pm 3ft 16s 9 11 mph 1029.2mb 63f 62f
3:00pm 3.5ft 16s 9 11 mph 1028.9mb 63f 62f
2:00pm 3.5ft 16s 7 9 mph 1028.2mb 63f 62f
1:00pm 3.5ft 14s 9 11 mph 1027.7mb 63f 62f
12:00pm 3.5ft 14s 7
mph
1027.3mb 63f 62f
11:00am 3.5ft 16s 7 9 mph 1027.1mb 63f 62f
10:00am 3.5ft 17s 7 9 mph 1027.1mb 63f 61f
9:00am 3.5ft 17s 7 9 mph 1027mb 63f 61f
8:00am 3.5ft 15s 4 7 mph 1026.9mb 63f 62f
7:00am 3.5ft 14s 9 11 mph 1026.9mb 63f 62f
6:00am 3.5ft 17s 4 7 mph 1027.1mb 63f 62f
5:00am 4ft 14s 4 7 mph 1026.6mb 63f 62f
4:00am 3.5ft 14s 7 9 mph 1026.2mb 63f 62f
3:00am 4ft 17s 7 9 mph 1025.8mb 63f 62f
2:00am 4ft 14s 7
mph
1025.6mb 64f 62f
1:00am 4ft 15s 7 9 mph 1025.6mb 64f 62f
12:00am 4ft 15s 7 9 mph 1025.5mb 64f 61f
Mon 08/22 11:00pm 4.5ft 14s 7 9 mph 1025.5mb 64f 61f
10:00pm 4.5ft 15s 7 9 mph 1025.4mb 63f 61f
9:00pm 4.5ft 7s 7
mph
1025.1mb 62f 61f
8:00pm 4ft 7s 4 7 mph 1024.9mb 63f 61f
7:00pm 4.5ft 15s 7
mph
1025mb 62f 61f
6:00pm 3.5ft 15s 7 9 mph 1024.9mb 62f 61f
5:00pm 4ft 15s 7 9 mph 1024.4mb 62f 60f
4:00pm 4ft 15s 7 9 mph 1024.2mb 62f 60f
3:00pm 4ft 15s 9
mph
1024mb 62f 60f
2:00pm 4ft 14s 9 11 mph 1023.4mb 62f 60f
1:00pm 4.5ft 15s 9 11 mph 1022.8mb 62f 60f
12:00pm 4.5ft 15s 9
mph
1022.8mb 62f 60f
11:00am 4.5ft 16s 9 11 mph 1022.7mb 62f 60f
10:00am 4.5ft 7s 7 9 mph 1022.5mb 62f 60f
9:00am 4.5ft 7s 9 11 mph 1022.5mb 62f 60f
8:00am 4.5ft 7s 9 11 mph 1022.5mb 62f 60f
7:00am 4.5ft 6s 9 11 mph 1022.5mb 62f 60f
6:00am 4.5ft 7s 11 13 mph 1022.6mb 62f 60f
5:00am 4.5ft 6s 11 13 mph 1022.4mb 62f 61f
4:00am 4.5ft 7s 11 16 mph 1022.1mb 62f 61f
3:00am 4.5ft 16s 13 16 mph 1021.8mb 63f 61f
2:00am 4.5ft 15s 13
mph
1021.7mb 63f 61f